11 a 21/3 - Templado a cálido y estable C, lluvias N. Entrada fría al final.

Avatar de Usuario
Ezequiel15
Mensajes: 14414
Registrado: Lun Ene 23, 2012 4:18 pm
Ubicación: Ramos Mejia

Re: 11 a 21/3 - Templado a cálido y estable C, lluvias N. Entrada fría al final.

Mensaje por Ezequiel15 »

Rio Grande metió -4,8°C de mínima
Azul 0,7°C
Coronel Suarez 0,9°C
Avatar de Usuario
Ernest
Mensajes: 16132
Registrado: Vie Jul 17, 2009 10:54 pm
Ubicación: Balvanera, CABA

Re: 11 a 21/3 - Templado a cálido y estable C, lluvias N. Entrada fría al final.

Mensaje por Ernest »

T 17,2 - Td 5,0 - HR 44 % en mi termómetro de Savio. Secó lindo. Al sol se está espectacular.

Acacias Blancas marca 18,0 con 5,3 de Td. La mínima allí fue de 7,0.
Did you want to talk about the weather, or were you just making chitchat?

Twitter: @ErnestoAtmoII
Avatar de Usuario
Diecha
Mensajes: 20023
Registrado: Jue Ago 25, 2011 9:31 pm
Ubicación: Lomas de Zamora

Re: 11 a 21/3 - Templado a cálido y estable C, lluvias N. Entrada fría al final.

Mensaje por Diecha »

Buenas.

Imagen

Imagen
Spoiler
Imagen
Imagen
Imagen
Imagen
Imagen
Imagen
Imagen
Imagen
Imagen
Imagen
Última edición por Diecha el Sab Mar 19, 2022 2:21 pm, editado 1 vez en total.
Danywilde
Mensajes: 3271
Registrado: Mar Ene 24, 2012 1:41 pm
Ubicación: Wilde, Buenos Aires

Re: 11 a 21/3 - Templado a cálido y estable C, lluvias N. Entrada fría al final.

Mensaje por Danywilde »

LOS FUTUROS CHAPAS EN LA COSTA...
MARDEL LOS TIENE CERCA:
m.jpg
GESELL EMPIEZA A VERLOS ( CON ESCENA ROMÁNTICA Y TODO :lol: )
g.jpg
No tiene los permisos requeridos para ver los archivos adjuntos a este mensaje.
Avatar de Usuario
Diecha
Mensajes: 20023
Registrado: Jue Ago 25, 2011 9:31 pm
Ubicación: Lomas de Zamora

Re: 11 a 21/3 - Templado a cálido y estable C, lluvias N. Entrada fría al final.

Mensaje por Diecha »



Imagen
Avatar de Usuario
Ernest
Mensajes: 16132
Registrado: Vie Jul 17, 2009 10:54 pm
Ubicación: Balvanera, CABA

Re: 11 a 21/3 - Templado a cálido y estable C, lluvias N. Entrada fría al final.

Mensaje por Ernest »

T 20,0 - Td 5,6 - HR 39 % en Savio, casi despejado (se ven unos pocos Ac al horizonte) pero con más viento que hace unas horas.
20,8 con 6,4 de Td en la EMA de Acacias Blancas.
Did you want to talk about the weather, or were you just making chitchat?

Twitter: @ErnestoAtmoII
Avatar de Usuario
Diecha
Mensajes: 20023
Registrado: Jue Ago 25, 2011 9:31 pm
Ubicación: Lomas de Zamora

Re: 11 a 21/3 - Templado a cálido y estable C, lluvias N. Entrada fría al final.

Mensaje por Diecha »



Imagen

- Tandil 15 hs: SAZT 191800Z 23009KT 9999 SCT035 SCT036 20/01 Q1023
- Mar del Plata 15 hs: SAZM 191800Z 20010KT 160V240 CAVOK 18/07 Q1023

Imagen

- Bahía Blanca 15 hs: SAZB 191800Z 14114KT 9999 FEW035 BKN080 19/05 Q1024

Imagen
Avatar de Usuario
tomasmi1996
Mensajes: 1411
Registrado: Dom Abr 24, 2016 4:30 pm
Ubicación: Villa Celina, La Matanza

Re: 11 a 21/3 - Templado a cálido y estable C, lluvias N. Entrada fría al final.

Mensaje por tomasmi1996 »

En el ranking de las 17 Tucumán figura con 0% de humedad y en el reporte oficial marca 82% de humedad y llovizna
EMA Ortúzar
http://www.twitter.com/SMN_OCBA

El Qué no Conoce a Dios a Cualquier Santo le Reza

Cada Vez Qué Alguien Dice RESOLANA, un Gatito se Suicida

Si OCBA sigue pecheandola en entradas frias vamos a estar un siglo esperando la negativa
Avatar de Usuario
NicodWilde
Mensajes: 17390
Registrado: Mié Ago 01, 2012 7:34 pm
Ubicación: Wilde, Buenos Aires

Re: 11 a 21/3 - Templado a cálido y estable C, lluvias N. Entrada fría al final.

Mensaje por NicodWilde »

15.9° a las 20 HS

Está potente el descenso térmico
No necesito que sea fácil, sólo que sea posible.

Nico
Avatar de Usuario
Ernest
Mensajes: 16132
Registrado: Vie Jul 17, 2009 10:54 pm
Ubicación: Balvanera, CABA

Re: 11 a 21/3 - Templado a cálido y estable C, lluvias N. Entrada fría al final.

Mensaje por Ernest »

Se puso frío desde temprano el asunto por Savio

18 hs: T 17,6 - Td 8,1 - HR 54 %
21 hs: T 12,3 - Td 9,6 - HR 83 %

En Acacias Blancas 11,8 con 8,6 de Td. Máxima de 20,9 por allí.

Mendoza Aero con 22,4 y Neuquén con 20,4 a esta hora.

Aeroparque 16,5
OCBA 14,6
Ezeiza 13,9
El Palomar 11,5

Gesell 12,7. Fría noche en la Costa también luego de una tarde agradable.
Did you want to talk about the weather, or were you just making chitchat?

Twitter: @ErnestoAtmoII